Terminal Aerodrome Forecast
Issued by NWS

Home | Current Version | Previous Version | Text Only | Print | Product List | Glossary On
Versions: 1 2 3 4 5 6 7 8 9 10 11 12
000
FTUS45 KABQ 241100
TAFSAF
TAF
KSAF 241121Z 2412/2512 35011KT P6SM SCT100
     FM241700 31012G22KT P6SM BKN080
     FM250200 36010KT P6SM SCT090=

USA.gov is the U.S. government's official web portal to all federal, state and local government web resources and services.